Ackworth, Iowa
Current Conditions -  °F | °C
As of 6:54 PM on Monday 20 Oct 2014 (Local Time) from KDSM Reporting Station
Clear Clear  
Wind Chill: 63°   Ceiling: Unl
Heat Index: 63°   Visibility: 10mi
Dew Point: 38°   Wind: 7mph
Humidity: 40%   Direction: 330°NNW
Pressure: 30.02"   Gusts: NA
Location:  41.37°N, 93.47°W
Report Text: KDSM 202354Z 33006KT 10SM CLR 17/03 A3002 RMK AO2 SLP164 T01720033 10222 20172 53006
Loading
Personal Weather Stations






























Interactive Weather Map
Tropical Storm Tracking
New forecast layout! Learn more

10-Day Weather Forecast

Advertisements
Track Severe Weather on mobile